Time;durP1;ratioP1;P1;durP2;ratioP2;P2;SDS_P1;SDS_P2;PMS_P1;PMS_P2;Temp;Humidity;BMP_temperature;BMP_pressure;BME280_temperature;BME280_humidity;BME280_pressure;Samples;Min_cycle;Max_cycle;Signal;HPM_P1;HPM_P2
2022/09/26 00:00:33;;;;;;;0.55;0.55;;;;;;;13.11;58.29;100488.81;5086362;28;20130;-81
2022/09/26 00:03:03;;;;;;;0.40;0.40;;;;;;;13.11;58.38;100494.06;5126960;28;20465;-81
2022/09/26 00:05:35;;;;;;;0.28;0.28;;;;;;;13.12;58.08;100480.00;5127400;28;20043;-81
2022/09/26 00:08:06;;;;;;;0.40;0.40;;;;;;;13.11;58.58;100475.63;5139721;28;20396;-80
2022/09/26 00:10:36;;;;;;;0.20;0.20;;;;;;;13.12;58.56;100469.44;5119568;28;20050;-80
2022/09/26 00:13:08;;;;;;;0.30;0.30;;;;;;;13.08;58.94;100473.16;5106638;28;20049;-80
2022/09/26 00:15:39;;;;;;;0.50;0.50;;;;;;;13.10;59.13;100459.91;5094038;28;20252;-80
2022/09/26 00:18:10;;;;;;;0.50;0.50;;;;;;;13.09;59.36;100448.53;5106781;28;20035;-80
2022/09/26 00:20:40;;;;;;;0.20;0.20;;;;;;;13.08;59.19;100444.19;5125284;28;20118;-80
2022/09/26 00:23:11;;;;;;;0.70;0.70;;;;;;;13.08;58.95;100436.28;5094183;28;20077;-80
2022/09/26 00:25:50;;;;;;;0.50;0.50;;;;;;;13.04;59.09;100434.69;5094522;28;20097;-80
2022/09/26 00:28:21;;;;;;;0.32;0.32;;;;;;;13.03;59.28;100432.97;5095050;28;20047;-79
2022/09/26 00:30:52;;;;;;;0.30;0.30;;;;;;;13.05;59.22;100420.59;5125191;28;20053;-80
2022/09/26 00:33:23;;;;;;;0.30;0.30;;;;;;;12.99;59.56;100418.22;5115179;28;20073;-79
2022/09/26 00:35:54;;;;;;;0.20;0.20;;;;;;;13.07;59.99;100421.38;5098064;28;23119;-81
2022/09/26 00:38:25;;;;;;;2.10;0.45;;;;;;;13.01;60.09;100413.75;5100251;28;20065;-81
2022/09/26 00:40:56;;;;;;;15.85;2.55;;;;;;;13.10;59.97;100417.75;5128288;28;20062;-81
2022/09/26 00:43:40;;;;;;;0.52;0.52;;;;;;;13.06;61.37;100419.66;5098055;28;20503;-81
2022/09/26 00:46:14;;;;;;;0.80;0.80;;;;;;;13.02;60.93;100412.81;5118351;28;20073;-79
2022/09/26 00:48:48;;;;;;;0.30;0.30;;;;;;;13.04;60.87;100410.97;5101286;28;20163;-80
2022/09/26 00:51:18;;;;;;;0.75;0.75;;;;;;;12.94;60.83;100401.75;5128988;28;20038;-80
2022/09/26 00:53:52;;;;;;;0.32;0.32;;;;;;;13.02;61.27;100402.28;5112817;28;20038;-80
2022/09/26 00:56:25;;;;;;;;;;;;;;;12.99;60.64;100400.63;5097533;28;20043;-81
2022/09/26 00:59:07;;;;;;;0.30;0.30;;;;;;;13.02;61.06;100399.63;5127714;28;19921;-80
2022/09/26 01:01:37;;;;;;;1.65;1.42;;;;;;;12.97;61.13;100399.00;5110704;28;20523;-81
2022/09/26 01:04:09;;;;;;;0.40;0.40;;;;;;;13.00;61.80;100389.19;5101157;28;20059;-80
2022/09/26 01:06:40;;;;;;;1.05;0.85;;;;;;;12.93;61.99;100394.78;5114032;28;20049;-79
2022/09/26 01:09:13;;;;;;;0.70;0.70;;;;;;;12.92;62.33;100386.00;5128847;28;20047;-80
2022/09/26 01:11:44;;;;;;;0.30;0.30;;;;;;;12.98;62.73;100379.63;5093362;28;20035;-81
2022/09/26 01:14:14;;;;;;;0.95;0.85;;;;;;;12.95;63.27;100377.13;5126452;28;20046;-81
2022/09/26 01:16:48;;;;;;;0.85;0.55;;;;;;;13.07;63.60;100376.63;5113332;28;20427;-80
2022/09/26 01:19:43;;;;;;;3.10;1.13;;;;;;;12.99;64.06;100374.28;5093215;28;20058;-81
2022/09/26 01:22:23;;;;;;;0.60;0.60;;;;;;;12.82;65.98;100369.75;5102180;28;20038;-81
2022/09/26 01:25:00;;;;;;;0.75;0.75;;;;;;;12.86;65.07;100366.06;5109890;28;20042;-81
2022/09/26 01:27:50;;;;;;;2.33;1.27;;;;;;;12.81;65.91;100359.31;5097750;28;20761;-80
2022/09/26 01:30:26;;;;;;;0.60;0.60;;;;;;;12.63;68.26;100355.63;5091930;28;20049;-80
2022/09/26 01:33:29;;;;;;;1.33;1.25;;;;;;;12.62;67.81;100356.56;5093849;28;20045;-80
2022/09/26 01:36:29;;;;;;;0.73;0.52;;;;;;;12.55;68.64;100348.91;5110537;28;20519;-81
2022/09/26 01:39:06;;;;;;;5.43;1.42;;;;;;;12.42;68.82;100345.94;5098004;28;20680;-81
2022/09/26 01:42:07;;;;;;;1.77;1.02;;;;;;;12.41;69.37;100338.97;5089555;28;20518;-81
2022/09/26 01:44:47;;;;;;;0.60;0.60;;;;;;;12.38;69.85;100339.09;5109245;28;20057;-81
2022/09/26 01:47:41;;;;;;;0.55;0.55;;;;;;;12.41;69.49;100341.59;5097474;28;20042;-80
2022/09/26 01:50:44;;;;;;;0.50;0.50;;;;;;;12.60;68.51;100341.69;5102691;28;20070;-81
2022/09/26 01:53:21;;;;;;;0.40;0.40;;;;;;;12.46;68.10;100344.03;5126644;28;20396;-81
2022/09/26 01:56:07;;;;;;;1.35;1.25;;;;;;;12.32;71.28;100341.13;5110406;28;20035;-81
2022/09/26 01:58:44;;;;;;;0.43;0.43;;;;;;;12.46;69.61;100330.03;5090741;28;20652;-80
2022/09/26 02:01:17;;;;;;;2.17;1.75;;;;;;;12.33;70.54;100320.00;5126952;28;20047;-80
2022/09/26 02:03:53;;;;;;;0.30;0.30;;;;;;;12.26;71.61;100319.41;5113191;28;20058;-81
2022/09/26 02:06:35;;;;;;;0.40;0.40;;;;;;;12.27;70.79;100325.53;5112555;28;20035;-80
2022/09/26 02:09:39;;;;;;;0.35;0.35;;;;;;;12.31;71.47;100311.34;5089785;28;20073;-81
2022/09/26 02:12:18;;;;;;;0.63;0.63;;;;;;;12.35;71.12;100302.38;5102312;28;20030;-80
2022/09/26 02:14:53;;;;;;;0.77;0.40;;;;;;;12.36;69.93;100301.47;5104077;28;20049;-81
2022/09/26 02:17:29;;;;;;;1.10;0.98;;;;;;;12.31;70.99;100294.69;5094954;28;20050;-81
2022/09/26 02:20:10;;;;;;;0.50;0.50;;;;;;;12.38;69.57;100293.50;5103840;28;20070;-80
2022/09/26 02:22:41;;;;;;;0.47;0.40;;;;;;;12.48;68.80;100286.94;5092348;28;20042;-80
2022/09/26 02:25:13;;;;;;;0.50;0.50;;;;;;;12.37;70.54;100283.91;5094122;28;20091;-80
2022/09/26 02:27:43;;;;;;;0.60;0.60;;;;;;;12.29;71.81;100281.59;5096288;28;20050;-81
2022/09/26 02:30:14;;;;;;;0.28;0.28;;;;;;;12.31;70.39;100277.13;5089502;28;20055;-81
2022/09/26 02:32:45;;;;;;;0.47;0.47;;;;;;;12.19;72.60;100267.94;5125452;28;20093;-80
2022/09/26 02:38:06;;;;;;;1.10;1.05;;;;;;;12.03;74.07;100259.84;5106559;28;20113;-80
2022/09/26 02:41:05;;;;;;;2.13;0.65;;;;;;;12.06;73.22;100253.59;5109701;28;20063;-79
2022/09/26 02:44:01;;;;;;;0.57;0.55;;;;;;;12.02;73.43;100252.03;5091228;28;20558;-80
2022/09/26 02:46:57;;;;;;;0.38;0.38;;;;;;;11.93;74.72;100246.19;5091007;28;20070;-80
2022/09/26 02:49:43;;;;;;;0.43;0.43;;;;;;;12.02;72.85;100238.88;5118711;28;20747;-79
2022/09/26 02:52:33;;;;;;;0.60;0.60;;;;;;;12.02;73.64;100238.88;5110456;28;20773;-80
2022/09/26 02:55:04;;;;;;;0.35;0.35;;;;;;;12.02;73.01;100226.59;5091156;28;20050;-80
2022/09/26 02:58:04;;;;;;;0.68;0.52;;;;;;;12.05;73.45;100212.44;5093064;28;20031;-81
2022/09/26 03:01:09;;;;;;;3.28;1.40;;;;;;;12.23;72.11;100208.22;5082362;28;20055;-80
2022/09/26 03:04:01;;;;;;;;;;;;;;;12.01;73.94;100210.88;5077069;28;20487;-80
2022/09/26 03:06:47;;;;;;;0.20;0.20;;;;;;;12.12;73.26;100206.00;5085583;28;19914;-80
2022/09/26 03:09:25;;;;;;;1.10;1.10;;;;;;;12.09;73.47;100200.91;5099856;28;20062;-80
2022/09/26 03:12:38;;;;;;;3.40;1.65;;;;;;;12.01;74.04;100184.59;5137325;28;20455;-80
2022/09/26 03:15:10;;;;;;;0.45;0.45;;;;;;;12.04;73.37;100187.94;5105668;28;20055;-80
2022/09/26 03:17:45;;;;;;;0.40;0.40;;;;;;;11.98;74.16;100180.31;5099249;28;20039;-80
2022/09/26 03:20:20;;;;;;;0.55;0.55;;;;;;;11.98;72.95;100179.44;5107492;28;20058;-80
2022/09/26 03:22:51;;;;;;;0.43;0.43;;;;;;;12.05;73.60;100180.91;5110824;28;20048;-81
2022/09/26 03:25:24;;;;;;;0.63;0.63;;;;;;;12.22;71.81;100170.53;5111315;28;20043;-81
2022/09/26 03:27:55;;;;;;;1.25;0.75;;;;;;;12.07;73.30;100161.50;5125953;28;20044;-81
2022/09/26 03:30:25;;;;;;;0.57;0.57;;;;;;;12.03;73.21;100164.31;5104843;28;20594;-81
2022/09/26 03:32:56;;;;;;;0.75;0.75;;;;;;;12.10;72.84;100153.50;5110451;28;20439;-81
2022/09/26 03:35:27;;;;;;;0.85;0.60;;;;;;;12.15;72.12;100153.28;5122713;28;20051;-81
2022/09/26 03:37:57;;;;;;;0.40;0.40;;;;;;;12.00;72.79;100141.66;5123152;28;20034;-80
2022/09/26 03:40:28;;;;;;;0.60;0.60;;;;;;;12.10;72.31;100136.88;5124915;28;20062;-81
2022/09/26 03:42:58;;;;;;;0.52;0.52;;;;;;;12.11;71.26;100133.28;5127754;28;20575;-80
2022/09/26 03:45:29;;;;;;;0.55;0.55;;;;;;;12.20;71.06;100122.38;5112551;28;20043;-80
2022/09/26 03:47:59;;;;;;;0.40;0.40;;;;;;;12.20;70.92;100125.00;5107649;28;20125;-80
2022/09/26 03:50:32;;;;;;;0.65;0.65;;;;;;;12.10;71.26;100126.34;5107335;28;20527;-80
2022/09/26 03:53:05;;;;;;;0.47;0.47;;;;;;;12.09;71.39;100120.22;5106998;28;20752;-81
2022/09/26 03:55:35;;;;;;;1.45;1.05;;;;;;;12.12;71.01;100111.34;5110249;28;20511;-81
2022/09/26 03:58:06;;;;;;;1.00;0.85;;;;;;;12.11;71.15;100122.78;5139955;28;20110;-81
2022/09/26 04:00:38;;;;;;;0.55;0.55;;;;;;;12.09;71.01;100119.38;5122680;28;20039;-80
2022/09/26 04:03:09;;;;;;;0.47;0.47;;;;;;;12.22;69.90;100107.41;5121617;28;20074;-81
2022/09/26 04:05:42;;;;;;;0.60;0.60;;;;;;;12.12;71.23;100103.44;5092955;28;20066;-81
2022/09/26 04:08:12;;;;;;;0.40;0.40;;;;;;;12.12;70.46;100096.44;5142332;28;20039;-81
2022/09/26 04:10:43;;;;;;;2.33;1.17;;;;;;;12.32;69.25;100089.41;5091717;28;20116;-81
2022/09/26 04:13:13;;;;;;;0.50;0.50;;;;;;;12.18;70.30;100091.81;5128069;28;20460;-81
2022/09/26 04:15:44;;;;;;;2.85;2.15;;;;;;;12.02;71.08;100089.00;5128438;28;20043;-80
2022/09/26 04:18:14;;;;;;;0.35;0.35;;;;;;;11.96;71.16;100085.69;5104328;28;20046;-79
2022/09/26 04:20:45;;;;;;;0.60;0.60;;;;;;;12.03;71.60;100082.81;5118259;28;20356;-81
2022/09/26 04:23:16;;;;;;;0.30;0.30;;;;;;;12.07;70.22;100076.50;5121717;28;20054;-81
2022/09/26 04:25:46;;;;;;;1.35;0.82;;;;;;;12.04;70.56;100074.00;5142492;28;20090;-80
2022/09/26 04:28:17;;;;;;;0.60;0.60;;;;;;;12.02;70.60;100063.56;5116355;28;20038;-80
2022/09/26 04:30:48;;;;;;;0.57;0.57;;;;;;;12.06;70.56;100066.91;5141748;28;20051;-81
2022/09/26 04:33:20;;;;;;;0.40;0.40;;;;;;;12.09;69.72;100059.75;5114372;28;20042;-81
2022/09/26 04:35:50;;;;;;;0.70;0.70;;;;;;;12.04;69.85;100058.22;5133447;28;20034;-81
2022/09/26 04:38:21;;;;;;;1.27;1.10;;;;;;;12.09;70.50;100048.38;5135035;28;20037;-81
2022/09/26 04:40:51;;;;;;;0.93;0.82;;;;;;;11.94;70.28;100048.06;5134204;28;20031;-80
2022/09/26 04:43:22;;;;;;;0.52;0.52;;;;;;;11.88;70.71;100032.59;5120711;28;20031;-80
2022/09/26 04:45:52;;;;;;;0.30;0.30;;;;;;;11.89;71.07;100033.44;5114425;28;20053;-82
2022/09/26 04:48:23;;;;;;;0.55;0.55;;;;;;;12.03;69.37;100031.09;5112702;28;20118;-82
2022/09/26 04:50:54;;;;;;;0.77;0.77;;;;;;;12.11;69.21;100030.75;5122075;28;20039;-81
2022/09/26 04:53:28;;;;;;;0.60;0.60;;;;;;;12.12;69.42;100027.19;5128864;28;20062;-81
2022/09/26 04:55:58;;;;;;;0.40;0.40;;;;;;;12.15;69.23;100019.19;5110452;28;20278;-81
2022/09/26 04:58:29;;;;;;;0.50;0.50;;;;;;;12.05;69.59;100025.75;5127299;28;20086;-81
2022/09/26 05:01:04;;;;;;;0.60;0.57;;;;;;;12.10;69.38;100022.00;5093355;28;20547;-81
2022/09/26 05:03:38;;;;;;;1.27;0.95;;;;;;;12.27;68.56;100008.09;5149913;28;20049;-82
2022/09/26 05:06:10;;;;;;;0.70;0.70;;;;;;;12.24;68.56;100005.63;5122068;28;20107;-81
2022/09/26 05:08:43;;;;;;;0.40;0.40;;;;;;;12.26;68.24;100006.41;5127355;28;20058;-81
2022/09/26 05:11:16;;;;;;;0.55;0.55;;;;;;;12.26;68.48;100001.16;5134024;28;20556;-81
2022/09/26 05:13:49;;;;;;;0.65;0.65;;;;;;;12.36;67.74;99993.69;5130055;28;20043;-81
2022/09/26 05:16:20;;;;;;;;;;;;;;;12.25;67.85;99994.19;5113033;28;20890;-81
2022/09/26 05:18:51;;;;;;;2.97;1.48;;;;;;;12.23;68.01;99996.00;5101330;28;19918;-81
2022/09/26 05:21:22;;;;;;;1.40;0.93;;;;;;;12.21;67.98;99982.06;5096454;28;20041;-81
2022/09/26 05:26:51;;;;;;;0.28;0.28;;;;;;;12.18;67.78;99976.09;5130089;28;20110;-80
2022/09/26 05:29:24;;;;;;;1.05;0.90;;;;;;;12.18;67.96;99971.72;5095523;28;20140;-81
2022/09/26 05:32:00;;;;;;;0.30;0.30;;;;;;;12.24;67.29;99971.44;5110654;28;20406;-81
2022/09/26 05:34:36;;;;;;;0.20;0.20;;;;;;;12.08;68.13;99960.75;5096251;28;20042;-80
2022/09/26 05:37:11;;;;;;;0.73;0.73;;;;;;;12.15;67.23;99961.31;5099514;28;20074;-81
2022/09/26 05:42:46;;;;;;;;;;;;;;;11.88;68.47;99948.47;5104443;28;20067;-81
2022/09/26 05:45:37;;;;;;;0.32;0.32;;;;;;;11.87;67.63;99952.00;5119818;28;20471;-80
2022/09/26 05:48:08;;;;;;;0.88;0.82;;;;;;;11.96;67.47;99953.38;5080510;28;20046;-81
2022/09/26 05:50:39;;;;;;;0.20;0.20;;;;;;;12.05;67.32;99946.88;5093236;28;20538;-81
2022/09/26 05:53:09;;;;;;;0.90;0.90;;;;;;;12.10;66.98;99942.28;5121567;28;20035;-81
2022/09/26 05:55:40;;;;;;;1.65;0.68;;;;;;;12.06;67.13;99945.97;5102835;28;20566;-81
2022/09/26 05:58:14;;;;;;;0.30;0.30;;;;;;;12.07;66.92;99938.00;5090509;28;20751;-81
2022/09/26 06:00:49;;;;;;;0.43;0.43;;;;;;;12.09;66.98;99941.41;5089527;28;20046;-80
2022/09/26 06:03:21;;;;;;;2.05;0.80;;;;;;;11.99;67.14;99940.13;5095666;28;20035;-81
2022/09/26 06:05:52;;;;;;;1.38;1.27;;;;;;;11.94;67.62;99935.03;5104174;28;20056;-81
2022/09/26 06:08:23;;;;;;;0.65;0.65;;;;;;;12.05;66.92;99937.22;5125488;28;20454;-81
2022/09/26 06:11:03;;;;;;;0.50;0.50;;;;;;;12.08;67.00;99930.97;5092527;28;20046;-81
2022/09/26 06:13:36;;;;;;;0.32;0.32;;;;;;;12.03;67.30;99930.31;5091764;28;20121;-81
2022/09/26 06:16:11;;;;;;;0.73;0.73;;;;;;;12.05;67.17;99920.59;5096416;28;20043;-80
2022/09/26 06:18:42;;;;;;;4.90;2.25;;;;;;;12.15;67.08;99918.41;5127829;28;20102;-80
2022/09/26 06:21:15;;;;;;;0.47;0.47;;;;;;;12.11;67.13;99917.66;5135138;28;20478;-81
2022/09/26 06:23:48;;;;;;;0.43;0.43;;;;;;;12.16;66.51;99912.19;5098513;28;20031;-81
2022/09/26 06:26:22;;;;;;;4.25;1.13;;;;;;;12.23;66.92;99916.28;5130295;28;20746;-81
2022/09/26 06:28:54;;;;;;;;;;;;;;;12.25;66.68;99898.63;5134268;28;20172;-81
2022/09/26 06:31:26;;;;;;;0.40;0.40;;;;;;;12.14;67.31;99901.75;5132587;28;19924;-81
2022/09/26 06:33:57;;;;;;;0.75;0.75;;;;;;;12.18;67.14;99898.06;5121546;28;20059;-81
2022/09/26 06:36:30;;;;;;;0.77;0.70;;;;;;;12.12;67.38;99893.09;5147224;28;20102;-81
2022/09/26 06:39:03;;;;;;;0.50;0.50;;;;;;;12.17;67.19;99888.47;5103025;28;20047;-81
2022/09/26 06:41:37;;;;;;;0.73;0.73;;;;;;;12.16;67.33;99886.78;5119896;28;20030;-80
2022/09/26 06:44:08;;;;;;;0.47;0.47;;;;;;;12.21;67.12;99871.63;5123789;28;20057;-81
2022/09/26 06:46:38;;;;;;;0.50;0.32;;;;;;;12.28;66.53;99873.03;5122076;28;20030;-81
2022/09/26 06:49:12;;;;;;;2.47;0.60;;;;;;;12.30;66.89;99864.22;5090051;28;20051;-80
2022/09/26 06:51:55;;;;;;;1.08;0.68;;;;;;;12.29;66.87;99868.63;5108332;28;20058;-81
2022/09/26 06:54:26;;;;;;;0.73;0.73;;;;;;;12.35;66.87;99864.88;5092767;28;20039;-80
2022/09/26 06:57:05;;;;;;;0.35;0.35;;;;;;;12.31;66.84;99861.53;5096761;28;20041;-81
2022/09/26 06:59:38;;;;;;;0.60;0.60;;;;;;;12.40;66.51;99854.97;5122651;28;20492;-81
2022/09/26 07:02:15;;;;;;;0.30;0.30;;;;;;;12.26;66.86;99850.34;5112508;28;20053;-80
2022/09/26 07:04:51;;;;;;;0.45;0.45;;;;;;;12.36;66.15;99850.75;5098662;28;20038;-80
2022/09/26 07:07:24;;;;;;;0.20;0.20;;;;;;;12.25;66.83;99852.16;5112443;28;20098;-81
2022/09/26 07:10:00;;;;;;;0.93;0.93;;;;;;;12.17;67.01;99842.91;5093366;28;20448;-80
2022/09/26 07:12:36;;;;;;;0.40;0.40;;;;;;;12.17;67.22;99843.78;5096614;28;20571;-80
2022/09/26 07:15:12;;;;;;;7.88;0.75;;;;;;;12.19;67.53;99841.06;5117697;28;20046;-80
2022/09/26 07:17:50;;;;;;;0.20;0.20;;;;;;;12.08;67.65;99845.03;5098601;28;20204;-80
2022/09/26 07:20:22;;;;;;;5.35;2.25;;;;;;;12.23;67.80;99840.84;5131630;28;20176;-80
2022/09/26 07:23:07;;;;;;;0.38;0.38;;;;;;;12.12;68.78;99836.09;5122442;28;20064;-80
2022/09/26 07:25:47;;;;;;;0.40;0.40;;;;;;;12.12;68.81;99832.59;5092825;28;20074;-80
2022/09/26 07:28:19;;;;;;;0.20;0.20;;;;;;;12.13;69.11;99826.41;5095587;28;20050;-80
2022/09/26 07:30:59;;;;;;;0.40;0.40;;;;;;;12.01;69.93;99827.03;5094502;28;20043;-80
2022/09/26 07:33:30;;;;;;;0.20;0.20;;;;;;;12.03;69.66;99825.16;5126801;28;20089;-80
2022/09/26 07:36:01;;;;;;;0.28;0.28;;;;;;;12.15;68.90;99818.47;5090051;28;20439;-80
2022/09/26 07:38:35;;;;;;;0.30;0.30;;;;;;;12.10;69.34;99816.91;5108925;28;20054;-80
2022/09/26 07:41:10;;;;;;;0.52;0.50;;;;;;;12.15;69.50;99811.44;5080468;28;20110;-80
2022/09/26 07:43:49;;;;;;;0.20;0.20;;;;;;;12.12;69.11;99806.31;5089011;28;20130;-80
2022/09/26 07:52:07;;;;;;;0.30;0.30;;;;;;;12.16;69.29;99800.00;5099684;28;20039;-80
2022/09/26 07:54:41;;;;;;;0.30;0.30;;;;;;;12.30;69.02;99793.19;5115770;28;20529;-80
2022/09/26 07:57:18;;;;;;;0.30;0.30;;;;;;;12.20;69.03;99796.28;5102515;28;20043;-80
2022/09/26 08:00:11;;;;;;;0.55;0.55;;;;;;;12.10;69.48;99792.41;5104791;28;20042;-80
2022/09/26 08:02:45;;;;;;;0.20;0.20;;;;;;;12.03;70.23;99801.47;5126827;28;20122;-80
2022/09/26 08:05:30;;;;;;;0.30;0.30;;;;;;;12.11;70.11;99786.19;5097226;28;20112;-80
2022/09/26 08:08:01;;;;;;;0.95;0.63;;;;;;;12.06;70.35;99788.22;5095406;28;20471;-80
2022/09/26 08:10:34;;;;;;;0.32;0.32;;;;;;;12.09;69.90;99788.06;5113682;28;20087;-80
2022/09/26 08:13:18;;;;;;;0.32;0.32;;;;;;;12.08;69.38;99775.84;5095773;28;20050;-80
2022/09/26 08:15:57;;;;;;;0.45;0.40;;;;;;;12.10;69.17;99774.00;5114387;28;20582;-80
2022/09/26 08:18:28;;;;;;;2.92;0.77;;;;;;;12.09;69.31;99767.88;5096188;28;20698;-80
2022/09/26 08:21:20;;;;;;;2.05;1.10;;;;;;;12.11;69.78;99768.66;5110690;28;20050;-80
2022/09/26 08:23:57;;;;;;;0.20;0.20;;;;;;;12.11;69.48;99770.41;5096793;28;20800;-80
2022/09/26 08:26:31;;;;;;;0.60;0.60;;;;;;;12.18;68.69;99765.72;5105940;28;20045;-80
2022/09/26 08:29:02;;;;;;;0.20;0.20;;;;;;;12.17;68.50;99759.63;5111048;28;20050;-80
2022/09/26 08:31:44;;;;;;;0.20;0.20;;;;;;;12.03;68.87;99767.31;5102928;28;22953;-81
2022/09/26 08:34:21;;;;;;;0.45;0.45;;;;;;;12.07;69.54;99764.47;5101045;28;20448;-81
2022/09/26 08:36:53;;;;;;;0.20;0.20;;;;;;;12.06;69.18;99756.66;5099406;28;20031;-81
2022/09/26 08:39:24;;;;;;;0.40;0.40;;;;;;;12.11;69.04;99762.53;5109929;28;20051;-81
2022/09/26 08:42:27;;;;;;;0.47;0.47;;;;;;;12.17;68.92;99764.00;5093753;28;20042;-81
2022/09/26 08:48:48;;;;;;;0.20;0.20;;;;;;;12.27;68.37;99754.75;5115436;28;20039;-80
2022/09/26 08:51:36;;;;;;;0.30;0.30;;;;;;;12.17;68.27;99749.09;5126833;28;20055;-79
2022/09/26 08:54:14;;;;;;;0.70;0.70;;;;;;;12.30;67.94;99754.59;5123287;28;20125;-82
2022/09/26 08:56:53;;;;;;;0.20;0.20;;;;;;;12.18;68.55;99748.19;5113310;28;20113;-81
2022/09/26 08:59:33;;;;;;;0.20;0.20;;;;;;;12.25;68.23;99746.06;5096781;28;20068;-80
2022/09/26 09:02:13;;;;;;;0.20;0.20;;;;;;;12.13;68.92;99739.66;5100190;28;20054;-80
2022/09/26 09:05:17;;;;;;;0.20;0.20;;;;;;;12.05;69.13;99733.91;5133711;28;20047;-80
2022/09/26 09:07:55;;;;;;;0.40;0.40;;;;;;;12.18;68.84;99737.66;5112308;28;20039;-80
2022/09/26 09:10:46;;;;;;;0.63;0.63;;;;;;;12.12;68.91;99730.06;5092688;28;20185;-80
2022/09/26 09:13:33;;;;;;;0.25;0.25;;;;;;;12.16;69.37;99728.13;5115961;28;20086;-81
2022/09/26 09:16:52;;;;;;;0.30;0.30;;;;;;;12.17;69.21;99720.19;5129853;28;20454;-81
2022/09/26 09:19:28;;;;;;;0.73;0.52;;;;;;;12.36;68.10;99721.88;5095666;28;20059;-81
2022/09/26 09:22:43;;;;;;;1.38;0.90;;;;;;;12.26;68.60;99719.72;5126333;28;20034;-81
2022/09/26 09:25:29;;;;;;;0.38;0.38;;;;;;;12.26;69.16;99716.22;5107192;28;20539;-80
2022/09/26 09:28:32;;;;;;;0.63;0.63;;;;;;;12.25;69.41;99719.78;5128750;28;20104;-80
2022/09/26 09:31:12;;;;;;;0.25;0.25;;;;;;;12.23;69.67;99716.41;5107469;28;20089;-80
2022/09/26 09:33:48;;;;;;;0.20;0.20;;;;;;;12.26;70.36;99709.19;5083584;28;20050;-80
2022/09/26 09:36:45;;;;;;;0.20;0.20;;;;;;;12.46;69.43;99715.22;5101798;28;20538;-80
2022/09/26 09:39:34;;;;;;;0.30;0.30;;;;;;;12.43;70.15;99697.81;5117012;28;20062;-80
2022/09/26 09:42:17;;;;;;;0.35;0.35;;;;;;;12.49;70.32;99691.38;5100177;28;20290;-80
2022/09/26 09:45:18;;;;;;;0.30;0.30;;;;;;;12.60;70.21;99693.47;5095774;28;20050;-79
2022/09/26 09:47:55;;;;;;;0.20;0.20;;;;;;;12.59;70.35;99682.09;5091963;28;20101;-80
2022/09/26 09:50:42;;;;;;;0.20;0.20;;;;;;;12.57;70.24;99678.69;5080023;28;20047;-79
2022/09/26 09:53:51;;;;;;;0.20;0.20;;;;;;;12.69;69.90;99676.31;5107395;28;20065;-79
2022/09/26 09:56:56;;;;;;;0.60;0.60;;;;;;;12.69;69.56;99671.06;5107941;28;20591;-80
2022/09/26 09:59:37;;;;;;;0.20;0.20;;;;;;;12.58;70.38;99669.88;5084259;28;20072;-80
2022/09/26 10:02:29;;;;;;;1.30;0.55;;;;;;;12.75;69.89;99657.59;5097976;28;20035;-80
2022/09/26 10:05:37;;;;;;;0.20;0.20;;;;;;;12.79;69.52;99650.38;5090352;28;20568;-80
2022/09/26 10:08:18;;;;;;;0.43;0.43;;;;;;;12.83;69.38;99646.66;5112540;28;20080;-81
2022/09/26 10:11:11;;;;;;;0.40;0.40;;;;;;;12.82;68.94;99640.53;5099557;28;20053;-80
2022/09/26 10:13:43;;;;;;;0.20;0.20;;;;;;;12.82;69.27;99637.91;5117738;28;20038;-80
2022/09/26 10:16:15;;;;;;;0.20;0.20;;;;;;;12.80;69.20;99636.31;5120931;28;20038;-80
2022/09/26 10:19:02;;;;;;;0.30;0.30;;;;;;;12.86;69.04;99626.25;5073154;28;20062;-80
2022/09/26 10:21:44;;;;;;;0.30;0.30;;;;;;;12.97;68.43;99623.06;5088548;28;20035;-81
2022/09/26 10:24:50;;;;;;;0.63;0.60;;;;;;;12.94;68.85;99625.00;5138233;28;20061;-79
2022/09/26 10:27:33;;;;;;;6.22;0.90;;;;;;;12.88;68.93;99611.25;5074215;28;20170;-81
2022/09/26 10:30:30;;;;;;;0.20;0.20;;;;;;;12.95;68.96;99595.97;5110363;28;20051;-80
2022/09/26 10:33:33;;;;;;;0.55;0.55;;;;;;;12.97;68.51;99601.16;5097983;28;20106;-80
2022/09/26 10:36:26;;;;;;;0.20;0.20;;;;;;;13.13;68.35;99596.72;5096119;28;20053;-80
2022/09/26 10:42:24;;;;;;;0.32;0.32;;;;;;;13.25;68.10;99584.66;5107587;28;20066;-80
2022/09/26 10:45:34;;;;;;;0.82;0.82;;;;;;;13.21;67.87;99578.72;5087290;28;20138;-80
2022/09/26 10:51:06;;;;;;;0.47;0.47;;;;;;;13.31;67.05;99565.03;5090861;28;20043;-80
2022/09/26 10:53:39;;;;;;;0.20;0.20;;;;;;;13.33;65.72;99568.44;5098939;28;20522;-80
2022/09/26 10:56:15;;;;;;;0.30;0.30;;;;;;;13.36;65.86;99565.59;5111855;28;20070;-80
2022/09/26 10:58:46;;;;;;;0.40;0.40;;;;;;;13.43;65.74;99561.69;5125286;28;20045;-80
2022/09/26 11:01:24;;;;;;;0.32;0.32;;;;;;;13.38;65.10;99564.63;5112186;28;20031;-79
2022/09/26 11:04:09;;;;;;;0.20;0.20;;;;;;;13.44;65.64;99555.50;5120036;28;20583;-79
2022/09/26 11:06:46;;;;;;;0.22;0.22;;;;;;;13.46;65.32;99550.16;5127827;28;20033;-80
2022/09/26 11:09:19;;;;;;;0.20;0.20;;;;;;;13.49;64.94;99537.66;5110660;28;20050;-80
2022/09/26 11:11:52;;;;;;;0.20;0.20;;;;;;;13.45;65.00;99551.94;5130370;28;20039;-80
2022/09/26 11:14:27;;;;;;;0.90;0.60;;;;;;;13.43;64.02;99543.25;5092605;28;20647;-79
2022/09/26 11:16:59;;;;;;;0.50;0.47;;;;;;;13.54;64.34;99535.59;5093401;28;20134;-81
2022/09/26 11:19:43;;;;;;;0.20;0.20;;;;;;;13.51;63.35;99527.84;5100709;28;20085;-80
2022/09/26 11:22:46;;;;;;;0.20;0.20;;;;;;;13.59;64.04;99527.41;5102415;28;20736;-81
2022/09/26 11:25:33;;;;;;;0.30;0.30;;;;;;;13.66;63.60;99525.28;5116517;28;20145;-81
2022/09/26 11:28:17;;;;;;;0.20;0.20;;;;;;;13.65;63.39;99519.13;5107448;28;20090;-80
2022/09/26 11:30:57;;;;;;;0.13;0.13;;;;;;;13.71;63.46;99515.31;5093565;28;20053;-80
2022/09/26 11:33:29;;;;;;;0.30;0.30;;;;;;;13.72;63.21;99502.97;5100602;28;20049;-80
2022/09/26 11:36:38;;;;;;;0.20;0.20;;;;;;;13.65;62.80;99492.78;5111755;28;20045;-80
2022/09/26 11:39:37;;;;;;;0.20;0.20;;;;;;;13.72;63.07;99488.00;5085327;28;20054;-80
2022/09/26 11:42:43;;;;;;;0.20;0.20;;;;;;;13.77;62.84;99480.66;5100259;28;20361;-81
2022/09/26 11:45:48;;;;;;;0.25;0.25;;;;;;;13.82;62.46;99467.19;5091883;28;20045;-81
2022/09/26 11:48:18;;;;;;;;;;;;;;;13.79;62.08;99473.50;5097249;28;20047;-81
2022/09/26 11:51:21;;;;;;;0.47;0.47;;;;;;;13.83;62.58;99466.25;5104920;28;19918;-81
2022/09/26 11:53:55;;;;;;;0.20;0.20;;;;;;;14.00;62.12;99466.09;5070454;28;20135;-82
2022/09/26 11:56:48;;;;;;;;;;;;;;;13.97;62.18;99465.44;5077765;28;20098;-82
2022/09/26 11:59:57;;;;;;;0.22;0.22;;;;;;;14.01;62.13;99462.50;5122365;28;19984;-82
2022/09/26 12:02:59;;;;;;;0.45;0.45;;;;;;;14.06;62.21;99459.59;5116690;28;20099;-81
2022/09/26 12:06:00;;;;;;;0.20;0.20;;;;;;;14.11;62.89;99457.50;5117235;28;22976;-80
2022/09/26 12:09:06;;;;;;;1.00;0.77;;;;;;;14.08;62.46;99463.00;5098165;28;20105;-81
2022/09/26 12:12:08;;;;;;;0.20;0.20;;;;;;;14.16;63.23;99455.44;5119379;28;20039;-81
2022/09/26 12:15:07;;;;;;;0.20;0.20;;;;;;;14.21;62.59;99451.66;5075849;28;20519;-80
2022/09/26 12:18:05;;;;;;;0.38;0.38;;;;;;;14.30;63.28;99453.72;5127350;28;20050;-80
2022/09/26 12:20:45;;;;;;;0.30;0.30;;;;;;;14.31;63.41;99452.78;5113007;28;20427;-80
2022/09/26 12:23:35;;;;;;;0.38;0.38;;;;;;;14.17;62.98;99445.72;5098535;28;20607;-80
2022/09/26 12:26:30;;;;;;;0.20;0.20;;;;;;;14.28;63.71;99442.41;5104486;28;20081;-81
2022/09/26 12:29:27;;;;;;;3.92;1.13;;;;;;;14.01;64.48;99445.81;5109375;28;20051;-80
2022/09/26 12:32:13;;;;;;;0.20;0.20;;;;;;;14.11;65.59;99446.94;5096244;28;20038;-81
2022/09/26 12:35:21;;;;;;;0.20;0.20;;;;;;;13.76;66.83;99439.41;5096395;28;20168;-81
2022/09/26 12:38:01;;;;;;;0.10;0.10;;;;;;;14.05;66.25;99442.06;5096651;28;20031;-80
2022/09/26 12:40:38;;;;;;;0.68;0.68;;;;;;;14.00;66.66;99444.16;5108725;28;20041;-80
2022/09/26 12:43:43;;;;;;;0.20;0.20;;;;;;;13.80;67.57;99435.66;5132273;28;20066;-81
2022/09/26 12:46:17;;;;;;;0.20;0.20;;;;;;;13.80;67.58;99427.75;5063030;28;20487;-80
2022/09/26 12:49:20;;;;;;;0.45;0.45;;;;;;;13.91;67.31;99434.16;5110540;28;20118;-81
2022/09/26 12:51:59;;;;;;;0.25;0.25;;;;;;;13.99;66.68;99434.53;5096274;28;20030;-82
2022/09/26 12:54:58;;;;;;;0.20;0.20;;;;;;;13.93;67.09;99424.34;5110510;28;20051;-80